Terminal Aerodrome Forecast
Issued by NWS

Home | Current Version | Previous Version | Text Only | Print | Product List | Glossary On
Versions: 1 2 3 4 5 6 7 8 9 10 11 12 13 14 15 16 17 18 19 20 21 22 23 24 25 26 27 28
879
FTUS43 KGRR 242340
TAFJXN
TAF
KJXN 242340Z 2500/2524 19011KT P6SM VCTS SCT045 BKN060CB BKN110
      TEMPO 2500/2503 1SM +TSRA BR BKN015CB OVC035
     FM250300 23009KT 4SM -SHRA BR OVC007
     FM250400 24009KT 4SM BR OVC007
     FM251400 26014G26KT 4SM -SHSN BR OVC020=

USA.gov is the U.S. government's official web portal to all federal, state and local government web resources and services.